Time;durP1;ratioP1;P1;durP2;ratioP2;P2;SDS_P1;SDS_P2;PMS_P1;PMS_P2;Temp;Humidity;BMP_temperature;BMP_pressure;BME280_temperature;BME280_humidity;BME280_pressure;Samples;Min_cycle;Max_cycle;Signal;HPM_P1;HPM_P2
2021/04/29 00:00:54;;;;;;;5.63;4.47;;;7.40;99.90;;;;;;4892015;29;21104;-80
2021/04/29 00:03:19;;;;;;;5.43;4.23;;;7.40;99.90;;;;;;4880045;29;21100;-79
2021/04/29 00:05:45;;;;;;;7.57;4.70;;;7.40;99.90;;;;;;4862686;29;20496;-80
2021/04/29 00:08:11;;;;;;;5.15;4.30;;;7.40;99.90;;;;;;4860376;29;20418;-79
2021/04/29 00:10:36;;;;;;;6.03;4.80;;;7.40;99.90;;;;;;4864178;29;20395;-80
2021/04/29 00:13:02;;;;;;;6.55;4.63;;;7.50;99.90;;;;;;4878732;29;20407;-79
2021/04/29 00:15:28;;;;;;;6.88;4.22;;;7.40;99.90;;;;;;4876449;29;20419;-79
2021/04/29 00:17:53;;;;;;;5.60;4.40;;;7.40;99.90;;;;;;4891000;29;20401;-79
2021/04/29 00:20:21;;;;;;;6.53;4.43;;;7.40;99.90;;;;;;4877938;29;20954;-80
2021/04/29 00:22:46;;;;;;;5.83;4.47;;;7.40;99.90;;;;;;4880144;29;20423;-80
2021/04/29 00:25:12;;;;;;;4.67;4.20;;;7.30;99.90;;;;;;4873228;29;20519;-80
2021/04/29 00:27:38;;;;;;;5.15;4.57;;;7.30;99.90;;;;;;4873117;29;20419;-79
2021/04/29 00:30:05;;;;;;;4.88;4.38;;;7.30;99.90;;;;;;4855814;29;20465;-80
2021/04/29 00:32:31;;;;;;;4.78;3.97;;;7.40;99.90;;;;;;4866170;29;20420;-80
2021/04/29 00:34:57;;;;;;;4.93;4.07;;;7.40;99.90;;;;;;4884164;29;20427;-80
2021/04/29 00:37:22;;;;;;;5.13;4.63;;;7.40;99.90;;;;;;4875634;29;20427;-80
2021/04/29 00:39:48;;;;;;;6.25;4.43;;;7.40;99.90;;;;;;4858644;29;20401;-80
2021/04/29 00:42:14;;;;;;;5.70;4.33;;;7.40;99.90;;;;;;4892368;29;20475;-80
2021/04/29 00:44:40;;;;;;;5.78;4.60;;;7.40;99.90;;;;;;4905077;29;20411;-80
2021/04/29 00:47:06;;;;;;;5.80;4.70;;;7.40;99.90;;;;;;4892720;29;20473;-80
2021/04/29 00:49:33;;;;;;;5.05;4.28;;;7.50;99.90;;;;;;4858004;29;20412;-79
2021/04/29 00:51:59;;;;;;;5.82;4.70;;;7.50;99.90;;;;;;4885170;29;20409;-80
2021/04/29 00:54:24;;;;;;;4.80;4.25;;;7.50;99.90;;;;;;4893951;29;20503;-80
2021/04/29 00:56:50;;;;;;;5.83;4.63;;;7.40;99.90;;;;;;4874208;29;20409;-80
2021/04/29 00:59:16;;;;;;;5.28;4.70;;;7.50;99.90;;;;;;4893081;29;20512;-80
2021/04/29 01:01:41;;;;;;;5.13;4.63;;;7.50;99.90;;;;;;4895669;29;20399;-79
2021/04/29 01:04:19;;;;;;;5.30;4.53;;;7.50;99.90;;;;;;4875594;29;20405;-80
2021/04/29 01:06:51;;;;;;;5.93;4.35;;;7.50;99.90;;;;;;4895071;29;20407;-80
2021/04/29 01:09:37;;;;;;;4.88;4.38;;;7.50;99.90;;;;;;4859300;29;20921;-80
2021/04/29 01:12:20;;;;;;;5.63;4.65;;;7.50;99.90;;;;;;4874874;29;20807;-79
2021/04/29 01:14:47;;;;;;;6.78;5.53;;;7.60;99.90;;;;;;4889303;29;20480;-79
2021/04/29 01:17:12;;;;;;;5.18;4.35;;;7.60;99.90;;;;;;4856502;29;20518;-80
2021/04/29 01:19:41;;;;;;;5.28;4.70;;;7.70;99.90;;;;;;4870540;29;20427;-80
2021/04/29 01:22:12;;;;;;;4.80;4.22;;;7.70;99.90;;;;;;4878681;29;20551;-80
2021/04/29 01:24:47;;;;;;;6.15;4.95;;;7.70;99.90;;;;;;4886822;29;20414;-81
2021/04/29 01:27:13;;;;;;;6.63;4.45;;;7.70;99.90;;;;;;4895345;29;20538;-80
2021/04/29 01:29:39;;;;;;;4.80;4.25;;;7.70;99.90;;;;;;4862131;29;20415;-79
2021/04/29 01:32:04;;;;;;;6.07;4.60;;;7.70;99.90;;;;;;4855847;29;20456;-79
2021/04/29 01:34:33;;;;;;;5.45;4.55;;;7.70;99.90;;;;;;4887531;29;20446;-80
2021/04/29 01:36:58;;;;;;;4.70;4.10;;;7.90;99.90;;;;;;4895833;29;20402;-80
2021/04/29 01:39:24;;;;;;;5.60;4.50;;;7.80;99.90;;;;;;4892731;29;20411;-80
2021/04/29 01:41:51;;;;;;;5.23;4.20;;;7.80;99.90;;;;;;4888918;29;20405;-80
2021/04/29 01:44:18;;;;;;;4.93;4.43;;;7.80;99.90;;;;;;4878086;29;20397;-79
2021/04/29 01:46:43;;;;;;;5.22;4.70;;;7.80;99.90;;;;;;4874958;29;20516;-80
2021/04/29 01:49:10;;;;;;;5.53;4.50;;;7.90;99.90;;;;;;4876150;29;20485;-80
2021/04/29 01:51:36;;;;;;;7.22;4.47;;;7.90;99.90;;;;;;4862311;29;20415;-80
2021/04/29 01:54:02;;;;;;;6.07;4.93;;;7.90;99.90;;;;;;4879199;29;20506;-80
2021/04/29 01:56:28;;;;;;;6.00;4.82;;;7.70;99.90;;;;;;4859432;29;20414;-80
2021/04/29 01:58:53;;;;;;;5.83;4.50;;;7.90;99.90;;;;;;4893759;29;20411;-80
2021/04/29 02:01:19;;;;;;;5.00;4.37;;;7.90;99.90;;;;;;4870913;29;20418;-81
2021/04/29 02:03:45;;;;;;;5.18;4.65;;;7.90;99.90;;;;;;4872446;29;20411;-80
2021/04/29 02:06:10;;;;;;;7.47;4.53;;;7.90;99.90;;;;;;4868645;29;20402;-80
2021/04/29 02:08:36;;;;;;;5.27;4.40;;;7.90;99.90;;;;;;4884874;29;20405;-80
2021/04/29 02:11:02;;;;;;;5.32;4.43;;;7.90;99.90;;;;;;4866314;29;20397;-80
2021/04/29 02:13:28;;;;;;;5.10;4.60;;;7.90;99.90;;;;;;4861402;29;20427;-80
2021/04/29 02:15:56;;;;;;;5.53;4.57;;;7.90;99.90;;;;;;4859367;29;20483;-80
2021/04/29 02:18:22;;;;;;;4.80;4.40;;;8.00;99.90;;;;;;4892874;29;20409;-80
2021/04/29 02:20:49;;;;;;;5.15;4.57;;;8.00;99.90;;;;;;4859764;29;20411;-80
2021/04/29 02:23:19;;;;;;;4.93;4.43;;;8.00;99.90;;;;;;4891135;29;20404;-80
2021/04/29 02:25:46;;;;;;;4.90;4.27;;;8.00;99.90;;;;;;4873276;29;20502;-80
2021/04/29 02:28:12;;;;;;;5.87;4.00;;;8.10;99.90;;;;;;4856962;29;20412;-80
2021/04/29 02:30:38;;;;;;;5.87;4.37;;;8.10;99.90;;;;;;4856333;29;20407;-80
2021/04/29 02:33:04;;;;;;;6.57;4.40;;;8.20;99.90;;;;;;4891592;29;20408;-80
2021/04/29 02:35:30;;;;;;;4.90;3.90;;;8.20;99.90;;;;;;4872343;29;20425;-80
2021/04/29 02:37:56;;;;;;;4.90;4.00;;;8.20;99.90;;;;;;4893689;29;20438;-79
2021/04/29 02:40:21;;;;;;;4.65;4.25;;;8.30;99.90;;;;;;4864329;29;20486;-80
2021/04/29 02:42:47;;;;;;;4.73;4.23;;;8.30;99.90;;;;;;4874999;29;20403;-80
2021/04/29 02:45:14;;;;;;;4.47;4.07;;;8.40;99.90;;;;;;4876847;29;20422;-80
2021/04/29 02:47:44;;;;;;;7.05;4.63;;;8.40;99.90;;;;;;4877011;29;20905;-80
2021/04/29 02:50:11;;;;;;;4.65;4.15;;;8.40;99.90;;;;;;4885467;29;20455;-79
2021/04/29 02:52:38;;;;;;;5.22;4.20;;;8.40;99.90;;;;;;4888976;29;20501;-80
2021/04/29 02:55:07;;;;;;;4.78;4.22;;;8.40;99.90;;;;;;4899280;29;20925;-79
2021/04/29 02:57:32;;;;;;;4.95;4.20;;;8.40;99.90;;;;;;4882650;29;20913;-80
2021/04/29 02:59:58;;;;;;;4.70;4.27;;;8.40;99.90;;;;;;4879521;29;20426;-79
2021/04/29 03:02:24;;;;;;;4.07;3.60;;;8.40;99.90;;;;;;4875609;29;20413;-80
2021/04/29 03:04:50;;;;;;;5.45;4.38;;;8.40;99.90;;;;;;4884240;29;20419;-79
2021/04/29 03:07:15;;;;;;;4.87;4.33;;;8.50;99.90;;;;;;4885691;29;20412;-80
2021/04/29 03:09:41;;;;;;;6.07;4.03;;;8.50;99.90;;;;;;4890167;29;20422;-80
2021/04/29 03:12:09;;;;;;;4.80;4.00;;;8.50;99.90;;;;;;4875988;29;20502;-80
2021/04/29 03:14:35;;;;;;;4.05;3.75;;;8.50;99.90;;;;;;4873828;29;20448;-80
2021/04/29 03:17:01;;;;;;;4.55;3.92;;;8.50;99.90;;;;;;4864017;29;20422;-80
2021/04/29 03:19:26;;;;;;;4.67;4.17;;;8.60;99.90;;;;;;4896100;29;20414;-80
2021/04/29 03:21:52;;;;;;;4.60;4.10;;;8.60;99.90;;;;;;4889084;29;20428;-81
2021/04/29 03:24:18;;;;;;;5.93;4.50;;;8.60;99.90;;;;;;4863236;29;20409;-80
2021/04/29 03:26:43;;;;;;;4.67;4.10;;;8.60;99.90;;;;;;4856859;29;20407;-81
2021/04/29 03:29:09;;;;;;;4.40;4.00;;;8.60;99.90;;;;;;4862539;29;20989;-80
2021/04/29 03:31:35;;;;;;;5.77;4.53;;;8.60;99.90;;;;;;4851920;29;20407;-80
2021/04/29 03:34:00;;;;;;;6.57;4.43;;;8.60;99.90;;;;;;4880065;29;20422;-80
2021/04/29 03:36:26;;;;;;;4.10;3.80;;;8.60;99.90;;;;;;4878152;29;20484;-80
2021/04/29 03:38:52;;;;;;;7.40;4.20;;;8.60;99.90;;;;;;4892007;29;20440;-80
2021/04/29 03:41:18;;;;;;;5.88;4.45;;;8.70;99.90;;;;;;4886242;29;20484;-81
2021/04/29 03:46:40;;;;;;;9.18;6.75;;;8.50;99.90;;;;;;5539385;23;20416;-80
2021/04/29 03:49:24;;;;;;;6.80;4.70;;;8.50;99.90;;;;;;4929438;28;20394;-80
2021/04/29 03:51:51;;;;;;;7.10;4.38;;;8.50;99.90;;;;;;4938160;28;20392;-83
2021/04/29 03:54:32;;;;;;;5.72;4.78;;;8.40;99.90;;;;;;4918757;29;20386;-82
2021/04/29 03:57:37;;;;;;;6.45;4.53;;;8.50;99.90;;;;;;4939965;29;20396;-82
2021/04/29 04:00:18;;;;;;;4.72;4.05;;;8.60;99.90;;;;;;4951265;29;20503;-83
2021/04/29 04:02:46;;;;;;;5.03;4.37;;;8.40;99.90;;;;;;4959167;28;20393;-83
2021/04/29 04:05:15;;;;;;;6.93;4.40;;;8.60;99.90;;;;;;4933877;28;20401;-83
2021/04/29 04:07:43;;;;;;;5.32;4.50;;;8.50;99.90;;;;;;4919841;29;20397;-83
2021/04/29 04:10:16;;;;;;;5.70;4.63;;;8.50;99.90;;;;;;4951326;28;20396;-82
2021/04/29 04:12:41;;;;;;;4.82;4.00;;;8.50;99.90;;;;;;4953216;29;20382;-81
2021/04/29 04:24:57;;;;;;;5.03;4.53;;;8.50;99.90;;;;;;4928717;29;20399;-81
2021/04/29 04:32:07;;;;;;;5.70;4.60;;;8.70;99.90;;;;;;4968711;23;20929;-80
2021/04/29 04:34:32;;;;;;;4.60;4.20;;;8.70;99.90;;;;;;4930336;28;20413;-79
2021/04/29 04:37:01;;;;;;;7.00;3.97;;;8.70;99.90;;;;;;4911647;28;20409;-79
2021/04/29 04:39:27;;;;;;;5.45;4.07;;;8.80;99.90;;;;;;4902812;29;20826;-80
2021/04/29 04:41:53;;;;;;;4.93;4.15;;;8.90;99.90;;;;;;4912578;28;20390;-83
2021/04/29 04:44:18;;;;;;;7.33;4.43;;;8.90;99.90;;;;;;4918808;29;20394;-79
2021/04/29 04:46:44;;;;;;;6.65;4.70;;;8.90;99.90;;;;;;4917666;29;20402;-80
2021/04/29 04:49:10;;;;;;;6.15;4.68;;;8.90;99.90;;;;;;4923174;28;20877;-80
2021/04/29 04:51:35;;;;;;;6.43;4.50;;;9.10;99.90;;;;;;4929683;28;20406;-79
2021/04/29 04:54:02;;;;;;;5.03;4.00;;;9.00;99.90;;;;;;4930997;28;20384;-80
2021/04/29 04:56:28;;;;;;;6.38;3.72;;;9.00;99.90;;;;;;4925768;29;20490;-80
2021/04/29 04:58:54;;;;;;;5.17;4.17;;;9.00;99.90;;;;;;4906572;29;21020;-81
2021/04/29 05:01:21;;;;;;;4.57;3.90;;;9.00;99.90;;;;;;4883894;29;20397;-81
2021/04/29 05:03:48;;;;;;;5.60;4.00;;;9.10;99.90;;;;;;4927297;29;20855;-80
2021/04/29 05:06:15;;;;;;;3.78;3.22;;;9.10;99.90;;;;;;4921610;28;20404;-81
2021/04/29 05:08:52;;;;;;;4.20;3.80;;;9.00;99.90;;;;;;4924005;28;20405;-82
2021/04/29 05:11:18;;;;;;;4.53;3.77;;;9.00;99.90;;;;;;4958720;28;20931;-80
2021/04/29 05:13:49;;;;;;;4.28;3.80;;;9.20;99.90;;;;;;4921278;29;20405;-82
2021/04/29 05:16:16;;;;;;;4.80;3.58;;;9.20;99.90;;;;;;4933975;28;20407;-81
2021/04/29 05:18:42;;;;;;;3.58;3.28;;;9.20;99.90;;;;;;4945045;28;20928;-81
2021/04/29 05:21:09;;;;;;;4.07;3.67;;;9.30;99.90;;;;;;4926713;28;20415;-80
2021/04/29 05:51:56;;;;;;;4.55;3.90;;;9.50;99.90;;;;;;5155207;23;20441;-78
2021/04/29 05:54:34;;;;;;;4.05;3.60;;;9.50;99.90;;;;;;4891587;28;20475;-79
2021/04/29 06:08:44;;;;;;;4.40;4.00;;;9.70;99.90;;;;;;4868837;26;20993;-80
2021/04/29 06:11:09;;;;;;;6.17;4.40;;;9.70;99.90;;;;;;4925352;29;20498;-78
2021/04/29 06:13:35;;;;;;;4.97;4.53;;;9.70;99.90;;;;;;4915281;28;20396;-79
2021/04/29 06:16:01;;;;;;;5.00;4.43;;;9.70;99.90;;;;;;4898251;29;20436;-78
2021/04/29 06:18:27;;;;;;;4.17;3.77;;;9.70;99.90;;;;;;4909383;28;20400;-79
2021/04/29 06:20:52;;;;;;;4.80;4.40;;;9.70;99.90;;;;;;4913595;29;20419;-78
2021/04/29 06:23:18;;;;;;;6.65;4.45;;;9.80;99.90;;;;;;4913269;29;20924;-78
2021/04/29 06:25:44;;;;;;;6.87;4.57;;;9.80;99.90;;;;;;4899384;29;20406;-78
2021/04/29 06:28:09;;;;;;;6.10;4.50;;;9.90;99.90;;;;;;4932789;29;20429;-78
2021/04/29 06:30:35;;;;;;;4.60;4.20;;;9.90;99.90;;;;;;4921200;28;20412;-78
2021/04/29 06:33:01;;;;;;;5.00;4.50;;;10.00;99.90;;;;;;4899225;29;20394;-79
2021/04/29 06:35:27;;;;;;;4.43;4.03;;;10.00;99.90;;;;;;4917751;29;20512;-78
2021/04/29 06:37:52;;;;;;;4.70;4.30;;;10.00;99.90;;;;;;4921734;29;20414;-79
2021/04/29 06:40:18;;;;;;;5.03;4.40;;;10.10;99.90;;;;;;4897118;29;20410;-78
2021/04/29 06:42:44;;;;;;;5.93;4.57;;;10.10;99.90;;;;;;4916796;29;20461;-80
2021/04/29 06:45:10;;;;;;;4.85;4.25;;;10.10;99.90;;;;;;4895365;29;20409;-79
2021/04/29 06:47:36;;;;;;;4.88;4.18;;;10.10;99.90;;;;;;4898845;29;20408;-79
2021/04/29 06:50:02;;;;;;;5.03;4.60;;;10.10;99.90;;;;;;4895461;29;20791;-80
2021/04/29 06:52:28;;;;;;;4.90;4.40;;;10.10;99.90;;;;;;4884347;29;20393;-80
2021/04/29 06:54:53;;;;;;;5.63;4.63;;;10.10;99.90;;;;;;4926246;29;20452;-80
2021/04/29 06:57:19;;;;;;;4.90;4.50;;;10.10;99.90;;;;;;4915758;29;20478;-79
2021/04/29 06:59:45;;;;;;;5.67;4.83;;;10.10;99.90;;;;;;4884718;29;20402;-79
2021/04/29 07:02:11;;;;;;;5.07;4.65;;;10.10;99.90;;;;;;4912185;29;20410;-79
2021/04/29 07:04:37;;;;;;;5.25;4.75;;;10.10;99.90;;;;;;4886230;28;20432;-79
2021/04/29 07:07:03;;;;;;;5.45;4.72;;;10.30;99.90;;;;;;4919195;28;20413;-79
2021/04/29 07:09:28;;;;;;;5.20;4.70;;;10.20;99.90;;;;;;4917603;29;20486;-79
2021/04/29 07:11:55;;;;;;;4.33;3.93;;;10.30;99.90;;;;;;4900798;28;20401;-79
2021/04/29 07:14:21;;;;;;;5.00;4.50;;;10.30;99.90;;;;;;4883158;29;20434;-79
2021/04/29 07:16:46;;;;;;;4.23;3.83;;;10.30;99.90;;;;;;4912324;29;20832;-79
2021/04/29 07:19:12;;;;;;;4.45;4.05;;;10.40;99.90;;;;;;4897979;29;20825;-79
2021/04/29 07:21:38;;;;;;;4.88;4.45;;;10.40;99.90;;;;;;4914699;29;20430;-79
2021/04/29 07:24:04;;;;;;;4.18;3.78;;;10.40;99.90;;;;;;4901551;29;20407;-80
2021/04/29 07:26:30;;;;;;;4.40;3.90;;;10.40;99.90;;;;;;4901698;28;21098;-79
2021/04/29 07:28:55;;;;;;;5.83;4.67;;;10.40;99.90;;;;;;4931476;29;20394;-79
2021/04/29 07:31:21;;;;;;;4.70;4.10;;;10.40;99.90;;;;;;4929280;29;20885;-79
2021/04/29 07:33:47;;;;;;;5.10;3.77;;;10.50;99.90;;;;;;4917356;29;20399;-79
2021/04/29 07:36:12;;;;;;;4.90;4.40;;;10.50;99.90;;;;;;4913170;29;20417;-80
2021/04/29 07:38:38;;;;;;;5.25;4.15;;;10.50;99.90;;;;;;4935057;29;20492;-79
2021/04/29 07:41:04;;;;;;;4.60;4.07;;;10.50;99.90;;;;;;4935028;28;20434;-79
2021/04/29 07:43:30;;;;;;;4.80;4.30;;;10.50;99.90;;;;;;4922276;29;20386;-80
2021/04/29 07:45:55;;;;;;;5.10;4.35;;;10.50;99.90;;;;;;4895118;29;20829;-80
2021/04/29 07:48:21;;;;;;;4.30;4.00;;;10.50;99.90;;;;;;4921241;29;20572;-80
2021/04/29 07:50:47;;;;;;;4.60;4.22;;;10.40;99.90;;;;;;4906488;28;20389;-80
2021/04/29 07:53:12;;;;;;;6.17;4.77;;;10.40;99.90;;;;;;4921157;28;20483;-79
2021/04/29 07:55:38;;;;;;;5.75;5.10;;;10.30;99.90;;;;;;4932093;29;20474;-80
2021/04/29 07:58:04;;;;;;;5.13;4.63;;;10.40;99.90;;;;;;4918565;29;20468;-79
2021/04/29 08:00:30;;;;;;;6.23;4.70;;;10.30;99.90;;;;;;4903044;29;20410;-80
2021/04/29 08:02:55;;;;;;;5.35;4.85;;;10.30;99.90;;;;;;4895045;29;20420;-80
2021/04/29 08:05:21;;;;;;;5.40;4.90;;;10.30;99.90;;;;;;4903777;29;20783;-79
2021/04/29 08:07:47;;;;;;;4.97;4.57;;;10.40;99.90;;;;;;4917098;29;20434;-80
2021/04/29 08:10:14;;;;;;;7.72;4.63;;;10.40;99.90;;;;;;4916062;29;20422;-80
2021/04/29 08:12:40;;;;;;;6.25;5.05;;;10.40;99.90;;;;;;4911540;28;20402;-79
2021/04/29 08:15:06;;;;;;;5.07;4.60;;;10.50;99.90;;;;;;4938666;29;20417;-80
2021/04/29 08:17:32;;;;;;;5.47;4.97;;;10.50;99.90;;;;;;4926498;28;20551;-80
2021/04/29 08:19:57;;;;;;;5.90;5.20;;;10.50;99.90;;;;;;4901671;29;20483;-80
2021/04/29 08:22:24;;;;;;;6.43;5.50;;;10.60;99.90;;;;;;4940596;29;20400;-80
2021/04/29 08:24:50;;;;;;;5.45;4.95;;;10.70;99.90;;;;;;4906095;29;20411;-80
2021/04/29 08:27:15;;;;;;;5.10;4.70;;;10.80;99.90;;;;;;4890902;28;21191;-80
2021/04/29 08:29:41;;;;;;;5.60;5.10;;;10.90;99.90;;;;;;4901539;29;20407;-81
2021/04/29 08:32:07;;;;;;;5.65;5.15;;;11.00;99.90;;;;;;4902004;29;20411;-81
2021/04/29 08:34:33;;;;;;;7.47;5.43;;;11.10;99.90;;;;;;4897666;29;20449;-79
2021/04/29 08:36:58;;;;;;;6.13;5.57;;;11.30;99.90;;;;;;4893068;29;20452;-79
2021/04/29 08:39:25;;;;;;;5.93;5.38;;;11.50;99.90;;;;;;4923947;28;20492;-80
2021/04/29 08:41:51;;;;;;;6.35;5.75;;;11.60;99.90;;;;;;4929150;29;20492;-80
2021/04/29 08:44:16;;;;;;;6.63;5.93;;;11.70;99.90;;;;;;4901045;29;20549;-80
2021/04/29 08:46:42;;;;;;;7.73;6.20;;;11.90;99.90;;;;;;4919805;28;20410;-79
2021/04/29 08:49:08;;;;;;;6.55;5.85;;;12.00;99.90;;;;;;4922744;29;20423;-80
2021/04/29 08:51:33;;;;;;;6.15;5.57;;;12.00;99.90;;;;;;4933011;29;20904;-80
2021/04/29 08:53:59;;;;;;;7.20;5.97;;;12.10;99.90;;;;;;4912920;29;20398;-79
2021/04/29 08:56:25;;;;;;;6.20;5.60;;;12.10;99.90;;;;;;4924555;29;20477;-79
2021/04/29 08:58:54;;;;;;;8.55;5.93;;;12.10;99.90;;;;;;4892549;29;20402;-79
2021/04/29 09:01:20;;;;;;;6.65;5.93;;;12.30;99.90;;;;;;4917599;29;20395;-79
2021/04/29 09:03:46;;;;;;;6.40;5.80;;;12.30;99.90;;;;;;4923016;29;20865;-79
2021/04/29 09:06:12;;;;;;;9.77;6.53;;;12.40;99.90;;;;;;4899406;29;20953;-80
2021/04/29 09:08:38;;;;;;;6.97;6.27;;;12.30;99.90;;;;;;4908836;29;20435;-79
2021/04/29 09:11:14;;;;;;;8.25;6.53;;;12.50;99.90;;;;;;4887183;29;20942;-79
2021/04/29 09:13:40;;;;;;;7.28;6.35;;;12.60;99.90;;;;;;4916699;29;20488;-79
2021/04/29 09:16:08;;;;;;;6.73;5.63;;;12.80;99.90;;;;;;4917229;29;20462;-79
2021/04/29 09:18:34;;;;;;;8.90;6.60;;;12.80;99.90;;;;;;4900422;28;20412;-79
2021/04/29 09:21:08;;;;;;;9.45;6.75;;;12.90;99.90;;;;;;4902482;29;20397;-80
2021/04/29 09:23:36;;;;;;;8.10;7.18;;;13.10;99.90;;;;;;4931641;29;20473;-80
2021/04/29 09:26:05;;;;;;;6.22;5.63;;;13.30;99.90;;;;;;4913589;29;20475;-79
2021/04/29 09:28:46;;;;;;;7.28;6.43;;;13.40;99.90;;;;;;4879802;29;20402;-80
2021/04/29 09:31:14;;;;;;;6.63;5.93;;;13.40;99.90;;;;;;4915978;29;20400;-80
2021/04/29 09:33:42;;;;;;;7.07;6.00;;;13.60;99.90;;;;;;4948949;28;20845;-80
2021/04/29 09:36:19;;;;;;;7.53;6.43;;;13.70;99.90;;;;;;4931098;29;20421;-80
2021/04/29 09:38:44;;;;;;;6.20;5.68;;;13.70;99.90;;;;;;4905817;28;20423;-79
2021/04/29 09:41:10;;;;;;;9.20;6.13;;;13.90;99.90;;;;;;4933200;29;20432;-79
2021/04/29 09:43:36;;;;;;;9.18;6.13;;;14.10;99.90;;;;;;4899657;28;20466;-80
2021/04/29 09:46:03;;;;;;;7.07;6.17;;;14.30;99.90;;;;;;4900887;29;20404;-80
2021/04/29 09:48:36;;;;;;;6.53;5.85;;;14.40;99.90;;;;;;4882718;29;20412;-80
2021/04/29 09:51:02;;;;;;;6.57;5.60;;;14.40;99.90;;;;;;4924135;29;20413;-79
2021/04/29 09:53:37;;;;;;;7.32;5.90;;;14.60;99.90;;;;;;4899825;28;20392;-80
2021/04/29 09:56:07;;;;;;;7.28;5.75;;;14.80;99.90;;;;;;4906876;28;21143;-80
2021/04/29 09:58:33;;;;;;;7.43;6.00;;;14.90;99.90;;;;;;4916662;29;20412;-79
2021/04/29 10:00:59;;;;;;;6.88;5.80;;;14.90;99.90;;;;;;4896495;29;20419;-80
2021/04/29 10:03:24;;;;;;;7.43;4.97;;;14.90;99.90;;;;;;4914524;28;20994;-80
2021/04/29 10:05:54;;;;;;;8.75;6.25;;;15.10;99.90;;;;;;4940779;28;20508;-81
2021/04/29 10:08:24;;;;;;;7.18;5.82;;;15.10;99.90;;;;;;4937400;28;20414;-80
2021/04/29 10:10:49;;;;;;;5.90;5.28;;;15.30;99.90;;;;;;4907639;29;20406;-80
2021/04/29 10:13:17;;;;;;;6.65;5.60;;;15.50;99.90;;;;;;4900533;28;20396;-80
2021/04/29 10:15:43;;;;;;;6.07;5.38;;;15.80;99.90;;;;;;4922389;29;20418;-80
2021/04/29 10:18:09;;;;;;;5.97;5.38;;;16.00;99.90;;;;;;4936146;28;20465;-80
2021/04/29 10:20:45;;;;;;;6.43;5.32;;;16.30;99.90;;;;;;4933569;28;20479;-79
2021/04/29 10:23:11;;;;;;;6.15;5.45;;;16.30;99.90;;;;;;4915923;28;20407;-79
2021/04/29 10:25:38;;;;;;;6.22;5.10;;;16.20;99.90;;;;;;4923412;29;20400;-79
2021/04/29 10:28:05;;;;;;;6.28;4.80;;;16.20;99.90;;;;;;4909796;28;20759;-79
2021/04/29 10:30:37;;;;;;;5.25;4.80;;;16.20;99.90;;;;;;4893578;28;20399;-80
2021/04/29 10:33:16;;;;;;;5.50;4.85;;;16.40;99.90;;;;;;4913887;29;20395;-80
2021/04/29 10:36:10;;;;;;;5.97;4.70;;;16.60;99.90;;;;;;4921262;29;20426;-79
2021/04/29 10:38:36;;;;;;;7.55;5.05;;;16.70;99.90;;;;;;4909948;29;21024;-78
2021/04/29 10:41:16;;;;;;;5.18;4.68;;;16.70;99.90;;;;;;4910931;29;20482;-81
2021/04/29 10:43:42;;;;;;;5.03;4.53;;;16.70;99.90;;;;;;4876892;29;20430;-80
2021/04/29 10:46:08;;;;;;;4.25;3.85;;;16.70;99.90;;;;;;4929326;28;20475;-80
2021/04/29 10:48:48;;;;;;;5.00;4.50;;;16.70;99.90;;;;;;4929339;29;20471;-79
2021/04/29 10:51:14;;;;;;;4.93;4.40;;;17.00;99.90;;;;;;4911142;28;20451;-80
2021/04/29 10:53:40;;;;;;;4.50;3.80;;;17.10;99.90;;;;;;4933042;29;20419;-80
2021/04/29 10:56:15;;;;;;;4.67;4.27;;;17.20;99.90;;;;;;4903460;29;20403;-80
2021/04/29 10:58:42;;;;;;;5.07;4.57;;;17.10;99.90;;;;;;4915399;29;20450;-80
2021/04/29 11:01:14;;;;;;;4.93;3.90;;;17.10;99.90;;;;;;4885327;28;20519;-79
2021/04/29 11:03:56;;;;;;;4.13;3.70;;;17.00;99.90;;;;;;4916394;28;20406;-79
2021/04/29 11:06:27;;;;;;;4.53;4.00;;;17.20;99.90;;;;;;4890139;23;20450;-78
2021/04/29 11:08:54;;;;;;;3.65;3.35;;;17.80;99.90;;;;;;4923681;29;20406;-79
2021/04/29 11:11:28;;;;;;;4.00;3.60;;;17.70;99.90;;;;;;4916173;28;20402;-78
2021/04/29 11:14:10;;;;;;;3.90;3.60;;;17.70;99.90;;;;;;4900423;28;21009;-77
2021/04/29 11:16:55;;;;;;;4.38;3.80;;;17.80;99.90;;;;;;4914022;29;20894;-77
2021/04/29 11:19:39;;;;;;;4.32;3.72;;;17.80;99.90;;;;;;4894543;29;20409;-78
2021/04/29 11:22:12;;;;;;;3.90;3.50;;;17.50;99.90;;;;;;4929388;29;20403;-78
2021/04/29 11:24:42;;;;;;;5.60;3.90;;;17.20;99.90;;;;;;4912031;29;20426;-78
2021/04/29 11:27:24;;;;;;;4.00;3.60;;;17.10;99.90;;;;;;4893641;29;20411;-78
2021/04/29 11:29:50;;;;;;;4.97;3.67;;;16.80;99.90;;;;;;4912149;29;20411;-78
2021/04/29 11:32:17;;;;;;;4.47;3.83;;;16.60;99.90;;;;;;4898020;29;20466;-77
2021/04/29 11:34:45;;;;;;;3.60;3.30;;;16.50;99.90;;;;;;4911697;29;20427;-77
2021/04/29 11:37:11;;;;;;;4.35;3.42;;;16.30;99.90;;;;;;4917595;29;20839;-78
2021/04/29 11:39:37;;;;;;;4.07;3.50;;;16.40;99.90;;;;;;4913745;29;20399;-77
2021/04/29 11:42:03;;;;;;;4.35;3.53;;;16.70;99.90;;;;;;4898562;29;20425;-78
2021/04/29 11:44:29;;;;;;;3.85;3.45;;;17.00;99.90;;;;;;4898723;29;20442;-78
2021/04/29 11:46:55;;;;;;;4.33;3.70;;;17.50;99.90;;;;;;4904808;29;20407;-78
2021/04/29 11:49:20;;;;;;;4.13;3.47;;;17.60;99.90;;;;;;4881754;29;20399;-77
2021/04/29 11:51:48;;;;;;;3.40;3.10;;;17.60;99.90;;;;;;4900222;29;20905;-76
2021/04/29 11:54:16;;;;;;;3.40;3.20;;;17.60;99.90;;;;;;4896345;29;20496;-78
2021/04/29 11:56:42;;;;;;;2.75;2.55;;;17.40;99.90;;;;;;4899177;29;20408;-77
2021/04/29 11:59:08;;;;;;;2.83;2.63;;;17.30;99.90;;;;;;4932266;29;20483;-77
2021/04/29 12:01:35;;;;;;;3.13;2.85;;;17.20;99.90;;;;;;4910355;29;20492;-77
2021/04/29 12:04:01;;;;;;;3.33;2.50;;;17.20;99.90;;;;;;4882939;29;20465;-77
2021/04/29 12:06:27;;;;;;;2.65;2.45;;;17.30;99.90;;;;;;4913328;29;20805;-78
2021/04/29 12:08:53;;;;;;;2.87;2.67;;;17.30;99.90;;;;;;4917366;29;20431;-77
2021/04/29 12:11:18;;;;;;;3.05;2.70;;;17.40;99.90;;;;;;4886898;29;20416;-77
2021/04/29 12:13:51;;;;;;;2.70;2.50;;;17.40;99.90;;;;;;4913884;29;20404;-77
2021/04/29 12:16:20;;;;;;;3.20;2.90;;;17.40;99.90;;;;;;4886816;29;20487;-77
2021/04/29 12:18:48;;;;;;;3.08;2.88;;;17.40;99.90;;;;;;4902875;29;20503;-78
2021/04/29 12:21:14;;;;;;;3.13;2.92;;;17.50;99.90;;;;;;4887921;29;20467;-78
2021/04/29 12:23:40;;;;;;;3.67;3.35;;;17.60;99.90;;;;;;4916414;29;20396;-77
2021/04/29 12:26:09;;;;;;;3.97;3.58;;;17.90;99.90;;;;;;4898051;29;20408;-77
2021/04/29 12:28:36;;;;;;;3.08;2.88;;;18.10;99.90;;;;;;4897752;29;20402;-78
2021/04/29 12:31:12;;;;;;;4.25;3.85;;;18.10;99.90;;;;;;4897889;29;20412;-78
2021/04/29 12:33:37;;;;;;;3.33;3.03;;;18.50;99.90;;;;;;4899599;29;20754;-78
2021/04/29 12:36:09;;;;;;;3.07;2.77;;;18.60;99.90;;;;;;4912789;29;20430;-78
2021/04/29 12:38:35;;;;;;;3.13;2.92;;;18.60;99.90;;;;;;4917129;29;20473;-79
2021/04/29 12:41:05;;;;;;;2.90;2.70;;;18.50;99.90;;;;;;4898380;29;20907;-77
2021/04/29 12:43:30;;;;;;;3.03;2.70;;;18.40;99.90;;;;;;4910352;29;20437;-78
2021/04/29 12:45:57;;;;;;;3.10;2.90;;;18.40;99.90;;;;;;4897874;29;20419;-78
2021/04/29 12:48:31;;;;;;;2.83;2.63;;;18.10;99.90;;;;;;4897230;29;20409;-79
2021/04/29 12:51:02;;;;;;;3.80;3.30;;;17.80;99.90;;;;;;4913087;29;20428;-77
2021/04/29 12:53:28;;;;;;;3.63;3.00;;;17.70;99.90;;;;;;4913213;29;20431;-77
2021/04/29 12:55:54;;;;;;;3.33;2.75;;;18.00;99.90;;;;;;4913029;29;21234;-77
2021/04/29 12:58:29;;;;;;;4.35;3.22;;;19.10;99.90;;;;;;4897416;29;20459;-78
2021/04/29 13:00:56;;;;;;;3.70;3.00;;;19.90;99.90;;;;;;4910544;29;20415;-78
2021/04/29 13:03:50;;;;;;;3.40;2.70;;;19.60;99.90;;;;;;4929454;29;20411;-78
2021/04/29 13:06:15;;;;;;;2.80;2.60;;;19.40;99.90;;;;;;4894640;29;20475;-78
2021/04/29 13:09:00;;;;;;;2.83;2.63;;;20.00;99.90;;;;;;4912036;29;20420;-79
2021/04/29 13:11:32;;;;;;;3.08;2.55;;;20.10;99.90;;;;;;4912934;29;20415;-78
2021/04/29 13:14:17;;;;;;;2.90;2.60;;;20.00;99.90;;;;;;4930581;29;20430;-77
2021/04/29 13:16:44;;;;;;;3.17;2.63;;;20.10;99.90;;;;;;4903083;29;20435;-78
2021/04/29 13:19:11;;;;;;;2.80;2.60;;;20.30;99.90;;;;;;4935517;29;20483;-79
2021/04/29 13:21:37;;;;;;;3.30;2.55;;;20.40;99.90;;;;;;4913129;29;20406;-78
2021/04/29 13:24:03;;;;;;;2.73;2.47;;;20.30;99.90;;;;;;4896907;29;20419;-78
2021/04/29 13:26:29;;;;;;;2.63;2.30;;;19.80;99.00;;;;;;4911403;29;21012;-78
2021/04/29 13:28:54;;;;;;;2.90;2.60;;;19.40;99.00;;;;;;4898153;29;20408;-78
2021/04/29 13:31:20;;;;;;;2.43;2.23;;;19.20;99.30;;;;;;4895815;29;20414;-78
2021/04/29 13:33:46;;;;;;;2.20;2.10;;;19.20;99.50;;;;;;4910581;29;20920;-78
2021/04/29 13:36:13;;;;;;;2.93;2.30;;;19.40;98.30;;;;;;4882157;29;20431;-78
2021/04/29 13:38:39;;;;;;;1.98;1.88;;;19.80;98.50;;;;;;4914165;29;20407;-79
2021/04/29 13:41:04;;;;;;;2.72;2.30;;;20.00;99.70;;;;;;4910131;29;20407;-79
2021/04/29 13:43:30;;;;;;;2.53;2.33;;;20.00;96.30;;;;;;4923479;29;20948;-78
2021/04/29 13:45:56;;;;;;;2.50;2.30;;;19.90;96.90;;;;;;4907897;29;20935;-78
2021/04/29 13:48:22;;;;;;;2.50;2.10;;;19.90;95.60;;;;;;4911190;29;20515;-78
2021/04/29 13:50:48;;;;;;;3.78;2.38;;;20.10;96.40;;;;;;4877230;29;20959;-79